Capitol Logistics 411


KMSP
Minneapolis-St Paul International Airport
Minneapolis, Minnesota, US
KRFD
Chicago/Rockford International Airport
Rockford, Illinois, US

Activity Log

Date Flight Route Aircraft Duration
12/23/2019 CPX411 N0416F350 ZMBRO7 ODI JVL V128 RFD B738 0h 49m
11/20/2019 CPX411 N0362F270 ZMBRO7 ODI JVL V128 RFD B738 1h 08m
11/16/2019 CPX411 N0323A110 ZMBRO7 ODI JVL V128 RFD B738 0h 57m
10/14/2019 CPX411 ZMBRO7 ODI J30 COTON RFD B738 0h 51m
08/26/2019 CPX411 ZMBRO7 ODI J30 COTON RFD B738 0h 55m
08/07/2019 CPX411 ZMBRO7 ODI J30 COTON RFD B738 1h 07m
07/22/2019 CPX411 ZMBRO7 ODI J30 COTON RFD B738 0h 52m
06/26/2019 CPX411 ZMBRO7 ODI J30 COTON RFD B738 0h 57m
03/09/2019 CPX411 ZMBRO7 ODI J30 COTON RFD B752 0h 54m

Route Details

Aircraft Information
Primary: Boeing 737-800BCF
Backup: Not Available
Route Data
Distance: 278nm
Sched. Duration: 0h 40m
Avg. Duration: 0h 65m (+26m)
Times Flown: 9
Recm'd Route: ZMBRO7 ODI J30 COTON RFD
Planned Altitude: 27,000ft
Origin Wx: KMSP 080553Z 18014G21KT 10SM BKN033 BKN055 24/20 A2991 RMK AO2 SLP124 T02440200 10267 20244 402830189 55004
Dest. Wx: KRFD 080554Z 17009KT 10SM SCT250 20/15 A3013 RMK AO2 SLP196 T02000150 10256 20194 402890144 55003
Notes:

Financial History
Total Freight: 313,372lbs
Average Load: 34,819lbs/flt
Fuel Used: 50,517lbs
Avg. Fuel Used: 5,613lbs/flt
Fuel Expense: $61,126
Avg. Fuel Expense: $6,792
Avg. Fuel Cost: $1.21/lbs
Total Gross Income: $403,658
Pilot Pay: $1,741
Total Expenses: $44,063
Total Revenue: $296,680
Average Revenue: $44,850.93